sensor_id;sensor_type;location;lat;lon;timestamp;temperature;humidity
52979;DHT22;63430;53.186;6.598;2022-10-31T00:00:08;12.90;99.90
52979;DHT22;63430;53.186;6.598;2022-10-31T00:02:10;12.90;99.90
52979;DHT22;63430;53.186;6.598;2022-10-31T00:04:13;12.90;99.90
52979;DHT22;63430;53.186;6.598;2022-10-31T00:06:15;12.90;99.90
52979;DHT22;63430;53.186;6.598;2022-10-31T00:08:22;12.90;99.90
52979;DHT22;63430;53.186;6.598;2022-10-31T00:10:25;12.80;99.90
52979;DHT22;63430;53.186;6.598;2022-10-31T00:12:27;12.80;99.90
52979;DHT22;63430;53.186;6.598;2022-10-31T00:14:29;12.80;99.90
52979;DHT22;63430;53.186;6.598;2022-10-31T00:16:31;12.80;99.90
52979;DHT22;63430;53.186;6.598;2022-10-31T00:18:34;12.80;99.90
52979;DHT22;63430;53.186;6.598;2022-10-31T00:20:36;12.70;99.90
52979;DHT22;63430;53.186;6.598;2022-10-31T00:22:39;12.70;99.90
52979;DHT22;63430;53.186;6.598;2022-10-31T00:24:43;12.70;99.90
52979;DHT22;63430;53.186;6.598;2022-10-31T00:26:46;12.70;99.90
52979;DHT22;63430;53.186;6.598;2022-10-31T00:28:48;12.70;99.90
52979;DHT22;63430;53.186;6.598;2022-10-31T00:30:51;12.70;99.90
52979;DHT22;63430;53.186;6.598;2022-10-31T00:32:53;12.70;99.90
52979;DHT22;63430;53.186;6.598;2022-10-31T00:34:55;12.70;99.90
52979;DHT22;63430;53.186;6.598;2022-10-31T00:36:57;12.60;99.90
52979;DHT22;63430;53.186;6.598;2022-10-31T00:39:00;12.60;99.90
52979;DHT22;63430;53.186;6.598;2022-10-31T00:41:05;12.60;99.90
52979;DHT22;63430;53.186;6.598;2022-10-31T00:43:08;12.60;99.90
52979;DHT22;63430;53.186;6.598;2022-10-31T00:45:10;12.70;99.90
52979;DHT22;63430;53.186;6.598;2022-10-31T00:47:12;12.60;99.90
52979;DHT22;63430;53.186;6.598;2022-10-31T00:49:17;12.60;99.90
52979;DHT22;63430;53.186;6.598;2022-10-31T00:51:19;12.50;99.90
52979;DHT22;63430;53.186;6.598;2022-10-31T00:53:22;12.50;99.90
52979;DHT22;63430;53.186;6.598;2022-10-31T00:55:24;12.50;99.90
52979;DHT22;63430;53.186;6.598;2022-10-31T00:57:29;12.50;99.90
52979;DHT22;63430;53.186;6.598;2022-10-31T00:59:31;12.50;99.90
52979;DHT22;63430;53.186;6.598;2022-10-31T01:01:34;12.40;99.90
52979;DHT22;63430;53.186;6.598;2022-10-31T01:03:36;12.40;99.90
52979;DHT22;63430;53.186;6.598;2022-10-31T01:05:40;12.40;99.90
52979;DHT22;63430;53.186;6.598;2022-10-31T01:07:42;12.40;99.90
52979;DHT22;63430;53.186;6.598;2022-10-31T01:09:45;12.40;99.90
52979;DHT22;63430;53.186;6.598;2022-10-31T01:11:47;12.40;99.90
52979;DHT22;63430;53.186;6.598;2022-10-31T01:13:53;12.30;99.90
52979;DHT22;63430;53.186;6.598;2022-10-31T01:15:56;12.30;99.90
52979;DHT22;63430;53.186;6.598;2022-10-31T01:17:58;12.30;99.90
52979;DHT22;63430;53.186;6.598;2022-10-31T01:20:01;12.30;99.90
52979;DHT22;63430;53.186;6.598;2022-10-31T01:22:04;12.20;99.90
52979;DHT22;63430;53.186;6.598;2022-10-31T01:24:07;12.30;99.90
52979;DHT22;63430;53.186;6.598;2022-10-31T01:26:11;12.20;99.90
52979;DHT22;63430;53.186;6.598;2022-10-31T01:28:13;12.20;99.90
52979;DHT22;63430;53.186;6.598;2022-10-31T01:30:18;12.20;99.90
52979;DHT22;63430;53.186;6.598;2022-10-31T01:32:21;12.20;99.90
52979;DHT22;63430;53.186;6.598;2022-10-31T01:34:23;12.20;99.90
52979;DHT22;63430;53.186;6.598;2022-10-31T01:36:27;12.20;99.90
52979;DHT22;63430;53.186;6.598;2022-10-31T01:38:30;12.20;99.90
52979;DHT22;63430;53.186;6.598;2022-10-31T01:40:32;12.20;99.90
52979;DHT22;63430;53.186;6.598;2022-10-31T01:42:34;12.20;99.90
52979;DHT22;63430;53.186;6.598;2022-10-31T01:44:56;12.20;99.90
52979;DHT22;63430;53.186;6.598;2022-10-31T01:47:06;12.10;99.90
52979;DHT22;63430;53.186;6.598;2022-10-31T01:49:13;12.20;99.90
52979;DHT22;63430;53.186;6.598;2022-10-31T01:51:19;12.10;99.90
52979;DHT22;63430;53.186;6.598;2022-10-31T01:53:23;12.10;99.90
52979;DHT22;63430;53.186;6.598;2022-10-31T01:55:31;12.10;99.90
52979;DHT22;63430;53.186;6.598;2022-10-31T01:57:35;12.00;99.90
52979;DHT22;63430;53.186;6.598;2022-10-31T01:59:42;12.00;99.90
52979;DHT22;63430;53.186;6.598;2022-10-31T02:01:46;12.00;99.90
52979;DHT22;63430;53.186;6.598;2022-10-31T02:03:52;12.00;99.90
52979;DHT22;63430;53.186;6.598;2022-10-31T02:05:55;12.30;99.90
52979;DHT22;63430;53.186;6.598;2022-10-31T02:08:01;12.00;99.90
52979;DHT22;63430;53.186;6.598;2022-10-31T02:10:05;12.00;99.90
52979;DHT22;63430;53.186;6.598;2022-10-31T02:12:09;12.00;99.90
52979;DHT22;63430;53.186;6.598;2022-10-31T02:14:13;11.90;99.90
52979;DHT22;63430;53.186;6.598;2022-10-31T02:16:15;11.90;99.90
52979;DHT22;63430;53.186;6.598;2022-10-31T02:18:18;11.90;99.90
52979;DHT22;63430;53.186;6.598;2022-10-31T02:20:24;11.90;99.90
52979;DHT22;63430;53.186;6.598;2022-10-31T02:22:35;11.90;99.90
52979;DHT22;63430;53.186;6.598;2022-10-31T02:24:46;11.90;99.90
52979;DHT22;63430;53.186;6.598;2022-10-31T02:27:24;11.90;99.90
52979;DHT22;63430;53.186;6.598;2022-10-31T02:32:21;11.80;99.90
52979;DHT22;63430;53.186;6.598;2022-10-31T02:34:34;11.80;99.90
52979;DHT22;63430;53.186;6.598;2022-10-31T02:36:43;11.80;99.90
52979;DHT22;63430;53.186;6.598;2022-10-31T02:38:51;11.80;99.90
52979;DHT22;63430;53.186;6.598;2022-10-31T02:41:01;11.80;99.90
52979;DHT22;63430;53.186;6.598;2022-10-31T02:43:11;11.80;99.90
52979;DHT22;63430;53.186;6.598;2022-10-31T02:45:40;11.80;99.90
52979;DHT22;63430;53.186;6.598;2022-10-31T02:47:49;11.80;99.90
52979;DHT22;63430;53.186;6.598;2022-10-31T02:49:56;11.80;99.90
52979;DHT22;63430;53.186;6.598;2022-10-31T02:52:00;11.80;99.90
52979;DHT22;63430;53.186;6.598;2022-10-31T02:54:02;11.80;99.90
52979;DHT22;63430;53.186;6.598;2022-10-31T02:56:09;11.80;99.90
52979;DHT22;63430;53.186;6.598;2022-10-31T02:58:15;11.70;99.90
52979;DHT22;63430;53.186;6.598;2022-10-31T03:00:20;11.70;99.90
52979;DHT22;63430;53.186;6.598;2022-10-31T03:05:06;11.70;99.90
52979;DHT22;63430;53.186;6.598;2022-10-31T03:07:19;11.70;99.90
52979;DHT22;63430;53.186;6.598;2022-10-31T03:09:26;11.70;99.90
52979;DHT22;63430;53.186;6.598;2022-10-31T03:11:32;11.70;99.90
52979;DHT22;63430;53.186;6.598;2022-10-31T03:13:41;11.70;99.90
52979;DHT22;63430;53.186;6.598;2022-10-31T03:15:47;11.70;99.90
52979;DHT22;63430;53.186;6.598;2022-10-31T03:17:55;11.60;99.90
52979;DHT22;63430;53.186;6.598;2022-10-31T03:20:05;11.60;99.90
52979;DHT22;63430;53.186;6.598;2022-10-31T03:22:15;11.60;99.90
52979;DHT22;63430;53.186;6.598;2022-10-31T03:24:18;11.60;99.90
52979;DHT22;63430;53.186;6.598;2022-10-31T03:26:22;11.50;99.90
52979;DHT22;63430;53.186;6.598;2022-10-31T03:28:32;11.50;99.90
52979;DHT22;63430;53.186;6.598;2022-10-31T03:30:38;11.50;99.90
52979;DHT22;63430;53.186;6.598;2022-10-31T03:32:44;11.40;99.90
52979;DHT22;63430;53.186;6.598;2022-10-31T03:34:50;11.40;99.90
52979;DHT22;63430;53.186;6.598;2022-10-31T03:36:58;11.40;99.90
52979;DHT22;63430;53.186;6.598;2022-10-31T03:39:02;11.40;99.90
52979;DHT22;63430;53.186;6.598;2022-10-31T03:41:09;11.40;99.90
52979;DHT22;63430;53.186;6.598;2022-10-31T03:43:16;11.40;99.90
52979;DHT22;63430;53.186;6.598;2022-10-31T03:45:22;11.40;99.90
52979;DHT22;63430;53.186;6.598;2022-10-31T03:47:25;11.40;99.90
52979;DHT22;63430;53.186;6.598;2022-10-31T03:49:29;11.30;99.90
52979;DHT22;63430;53.186;6.598;2022-10-31T03:51:35;11.30;99.90
52979;DHT22;63430;53.186;6.598;2022-10-31T03:53:47;11.30;99.90
52979;DHT22;63430;53.186;6.598;2022-10-31T03:55:55;11.20;99.90
52979;DHT22;63430;53.186;6.598;2022-10-31T03:58:01;11.30;99.90
52979;DHT22;63430;53.186;6.598;2022-10-31T04:00:08;11.20;99.90
52979;DHT22;63430;53.186;6.598;2022-10-31T04:02:13;11.20;99.90
52979;DHT22;63430;53.186;6.598;2022-10-31T04:04:16;11.20;99.90
52979;DHT22;63430;53.186;6.598;2022-10-31T04:06:21;11.20;99.90
52979;DHT22;63430;53.186;6.598;2022-10-31T04:08:25;11.20;99.90
52979;DHT22;63430;53.186;6.598;2022-10-31T04:10:31;11.20;99.90
52979;DHT22;63430;53.186;6.598;2022-10-31T04:12:36;11.20;99.90
52979;DHT22;63430;53.186;6.598;2022-10-31T04:14:40;11.20;99.90
52979;DHT22;63430;53.186;6.598;2022-10-31T04:16:44;11.20;99.90
52979;DHT22;63430;53.186;6.598;2022-10-31T04:18:46;11.20;99.90
52979;DHT22;63430;53.186;6.598;2022-10-31T04:20:48;11.20;99.90
52979;DHT22;63430;53.186;6.598;2022-10-31T04:22:51;11.20;99.90
52979;DHT22;63430;53.186;6.598;2022-10-31T04:24:54;11.20;99.90
52979;DHT22;63430;53.186;6.598;2022-10-31T04:26:59;11.10;99.90
52979;DHT22;63430;53.186;6.598;2022-10-31T04:29:01;11.10;99.90
52979;DHT22;63430;53.186;6.598;2022-10-31T04:31:04;11.10;99.90
52979;DHT22;63430;53.186;6.598;2022-10-31T04:33:06;11.10;99.90
52979;DHT22;63430;53.186;6.598;2022-10-31T04:35:08;11.00;99.90
52979;DHT22;63430;53.186;6.598;2022-10-31T04:37:10;11.00;99.90
52979;DHT22;63430;53.186;6.598;2022-10-31T04:39:13;11.00;99.90
52979;DHT22;63430;53.186;6.598;2022-10-31T04:41:15;11.00;99.90
52979;DHT22;63430;53.186;6.598;2022-10-31T04:43:20;11.00;99.90
52979;DHT22;63430;53.186;6.598;2022-10-31T04:45:25;10.90;99.90
52979;DHT22;63430;53.186;6.598;2022-10-31T04:47:27;10.90;99.90
52979;DHT22;63430;53.186;6.598;2022-10-31T04:49:32;10.90;99.90
52979;DHT22;63430;53.186;6.598;2022-10-31T04:51:34;10.90;99.90
52979;DHT22;63430;53.186;6.598;2022-10-31T04:53:36;10.80;99.90
52979;DHT22;63430;53.186;6.598;2022-10-31T04:55:39;10.80;99.90
52979;DHT22;63430;53.186;6.598;2022-10-31T04:57:42;10.80;99.90
52979;DHT22;63430;53.186;6.598;2022-10-31T04:59:47;10.80;99.90
52979;DHT22;63430;53.186;6.598;2022-10-31T05:01:49;10.70;99.90
52979;DHT22;63430;53.186;6.598;2022-10-31T05:03:51;10.80;99.90
52979;DHT22;63430;53.186;6.598;2022-10-31T05:05:54;10.60;99.90
52979;DHT22;63430;53.186;6.598;2022-10-31T05:07:56;10.60;99.90
52979;DHT22;63430;53.186;6.598;2022-10-31T05:09:58;10.60;99.90
52979;DHT22;63430;53.186;6.598;2022-10-31T05:12:00;10.60;99.90
52979;DHT22;63430;53.186;6.598;2022-10-31T05:14:02;10.60;99.90
52979;DHT22;63430;53.186;6.598;2022-10-31T05:16:07;10.60;99.90
52979;DHT22;63430;53.186;6.598;2022-10-31T05:18:10;10.50;99.90
52979;DHT22;63430;53.186;6.598;2022-10-31T05:20:13;10.60;99.90
52979;DHT22;63430;53.186;6.598;2022-10-31T05:22:15;10.60;99.90
52979;DHT22;63430;53.186;6.598;2022-10-31T05:24:18;10.60;99.90
52979;DHT22;63430;53.186;6.598;2022-10-31T05:26:23;10.60;99.90
52979;DHT22;63430;53.186;6.598;2022-10-31T05:28:25;10.60;99.90
52979;DHT22;63430;53.186;6.598;2022-10-31T05:30:31;10.60;99.90
52979;DHT22;63430;53.186;6.598;2022-10-31T05:32:40;10.60;99.90
52979;DHT22;63430;53.186;6.598;2022-10-31T05:34:42;10.60;99.90
52979;DHT22;63430;53.186;6.598;2022-10-31T05:36:44;10.60;99.90
52979;DHT22;63430;53.186;6.598;2022-10-31T05:38:47;10.60;99.90
52979;DHT22;63430;53.186;6.598;2022-10-31T05:40:54;10.60;99.90
52979;DHT22;63430;53.186;6.598;2022-10-31T05:42:59;10.60;99.90
52979;DHT22;63430;53.186;6.598;2022-10-31T05:45:02;10.50;99.90
52979;DHT22;63430;53.186;6.598;2022-10-31T05:47:05;10.50;99.90
52979;DHT22;63430;53.186;6.598;2022-10-31T05:49:10;10.50;99.90
52979;DHT22;63430;53.186;6.598;2022-10-31T05:51:12;10.50;99.90
52979;DHT22;63430;53.186;6.598;2022-10-31T05:53:15;10.50;99.90
52979;DHT22;63430;53.186;6.598;2022-10-31T05:55:17;10.50;99.90
52979;DHT22;63430;53.186;6.598;2022-10-31T05:57:20;10.50;99.90
52979;DHT22;63430;53.186;6.598;2022-10-31T05:59:23;10.50;99.90
52979;DHT22;63430;53.186;6.598;2022-10-31T06:01:26;10.50;99.90
52979;DHT22;63430;53.186;6.598;2022-10-31T06:03:28;10.50;99.90
52979;DHT22;63430;53.186;6.598;2022-10-31T06:05:33;10.50;99.90
52979;DHT22;63430;53.186;6.598;2022-10-31T06:07:36;10.50;99.90
52979;DHT22;63430;53.186;6.598;2022-10-31T06:09:38;10.50;99.90
52979;DHT22;63430;53.186;6.598;2022-10-31T06:11:45;10.50;99.90
52979;DHT22;63430;53.186;6.598;2022-10-31T06:13:47;10.50;99.90
52979;DHT22;63430;53.186;6.598;2022-10-31T06:15:50;10.50;99.90
52979;DHT22;63430;53.186;6.598;2022-10-31T06:18:00;10.50;99.90
52979;DHT22;63430;53.186;6.598;2022-10-31T06:20:05;10.50;99.90
52979;DHT22;63430;53.186;6.598;2022-10-31T06:22:10;10.50;99.90
52979;DHT22;63430;53.186;6.598;2022-10-31T06:24:13;10.70;99.90
52979;DHT22;63430;53.186;6.598;2022-10-31T06:26:16;10.50;99.90
52979;DHT22;63430;53.186;6.598;2022-10-31T06:28:19;10.50;99.90
52979;DHT22;63430;53.186;6.598;2022-10-31T06:30:21;10.50;99.90
52979;DHT22;63430;53.186;6.598;2022-10-31T06:32:23;10.40;99.90
52979;DHT22;63430;53.186;6.598;2022-10-31T06:34:26;10.40;99.90
52979;DHT22;63430;53.186;6.598;2022-10-31T06:36:28;10.50;99.90
52979;DHT22;63430;53.186;6.598;2022-10-31T06:38:33;10.40;99.90
52979;DHT22;63430;53.186;6.598;2022-10-31T06:40:35;10.40;99.90
52979;DHT22;63430;53.186;6.598;2022-10-31T06:42:37;10.40;99.90
52979;DHT22;63430;53.186;6.598;2022-10-31T06:44:39;10.40;99.90
52979;DHT22;63430;53.186;6.598;2022-10-31T06:46:42;10.40;99.90
52979;DHT22;63430;53.186;6.598;2022-10-31T06:48:44;10.40;99.90
52979;DHT22;63430;53.186;6.598;2022-10-31T06:50:46;10.40;99.90
52979;DHT22;63430;53.186;6.598;2022-10-31T06:52:51;10.30;99.90
52979;DHT22;63430;53.186;6.598;2022-10-31T06:54:57;10.30;99.90
52979;DHT22;63430;53.186;6.598;2022-10-31T06:56:59;10.30;99.90
52979;DHT22;63430;53.186;6.598;2022-10-31T06:59:03;10.20;99.90
52979;DHT22;63430;53.186;6.598;2022-10-31T07:01:06;10.10;99.90
52979;DHT22;63430;53.186;6.598;2022-10-31T07:03:11;10.00;99.90
52979;DHT22;63430;53.186;6.598;2022-10-31T07:05:14;9.90;99.90
52979;DHT22;63430;53.186;6.598;2022-10-31T07:07:17;9.70;99.90
52979;DHT22;63430;53.186;6.598;2022-10-31T07:09:19;9.70;99.90
52979;DHT22;63430;53.186;6.598;2022-10-31T07:11:24;9.60;99.90
52979;DHT22;63430;53.186;6.598;2022-10-31T07:13:26;9.60;99.90
52979;DHT22;63430;53.186;6.598;2022-10-31T07:15:32;9.60;99.90
52979;DHT22;63430;53.186;6.598;2022-10-31T07:17:35;9.60;99.90
52979;DHT22;63430;53.186;6.598;2022-10-31T07:19:37;9.60;99.90
52979;DHT22;63430;53.186;6.598;2022-10-31T07:21:40;9.50;99.90
52979;DHT22;63430;53.186;6.598;2022-10-31T07:23:42;9.50;99.90
52979;DHT22;63430;53.186;6.598;2022-10-31T07:25:44;9.50;99.90
52979;DHT22;63430;53.186;6.598;2022-10-31T07:27:49;9.40;99.90
52979;DHT22;63430;53.186;6.598;2022-10-31T07:29:52;9.50;99.90
52979;DHT22;63430;53.186;6.598;2022-10-31T07:31:54;9.50;99.90
52979;DHT22;63430;53.186;6.598;2022-10-31T07:33:56;9.50;99.90
52979;DHT22;63430;53.186;6.598;2022-10-31T07:35:59;9.60;99.90
52979;DHT22;63430;53.186;6.598;2022-10-31T07:38:09;9.60;99.90
52979;DHT22;63430;53.186;6.598;2022-10-31T07:40:13;9.60;99.90
52979;DHT22;63430;53.186;6.598;2022-10-31T07:42:15;9.60;99.90
52979;DHT22;63430;53.186;6.598;2022-10-31T07:44:20;9.70;99.90
52979;DHT22;63430;53.186;6.598;2022-10-31T07:46:22;9.80;99.90
52979;DHT22;63430;53.186;6.598;2022-10-31T07:48:24;9.80;99.90
52979;DHT22;63430;53.186;6.598;2022-10-31T07:50:28;9.90;99.90
52979;DHT22;63430;53.186;6.598;2022-10-31T07:52:30;9.90;99.90
52979;DHT22;63430;53.186;6.598;2022-10-31T07:54:32;10.00;99.90
52979;DHT22;63430;53.186;6.598;2022-10-31T07:56:35;10.00;99.90
52979;DHT22;63430;53.186;6.598;2022-10-31T07:58:37;10.10;99.90
52979;DHT22;63430;53.186;6.598;2022-10-31T08:00:45;10.20;99.90
52979;DHT22;63430;53.186;6.598;2022-10-31T08:02:48;10.30;99.90
52979;DHT22;63430;53.186;6.598;2022-10-31T08:04:50;10.40;99.90
52979;DHT22;63430;53.186;6.598;2022-10-31T08:06:55;10.40;99.90
52979;DHT22;63430;53.186;6.598;2022-10-31T08:08:58;10.50;99.90
52979;DHT22;63430;53.186;6.598;2022-10-31T08:11:00;10.60;99.90
52979;DHT22;63430;53.186;6.598;2022-10-31T08:13:03;10.70;99.90
52979;DHT22;63430;53.186;6.598;2022-10-31T08:15:07;10.80;99.90
52979;DHT22;63430;53.186;6.598;2022-10-31T08:17:12;10.90;99.90
52979;DHT22;63430;53.186;6.598;2022-10-31T08:19:14;11.00;99.90
52979;DHT22;63430;53.186;6.598;2022-10-31T08:21:16;11.10;99.90
52979;DHT22;63430;53.186;6.598;2022-10-31T08:23:19;11.20;99.90
52979;DHT22;63430;53.186;6.598;2022-10-31T08:25:21;11.30;99.90
52979;DHT22;63430;53.186;6.598;2022-10-31T08:27:24;11.40;99.90
52979;DHT22;63430;53.186;6.598;2022-10-31T08:29:26;11.40;99.90
52979;DHT22;63430;53.186;6.598;2022-10-31T08:31:29;11.50;99.90
52979;DHT22;63430;53.186;6.598;2022-10-31T08:33:38;11.60;99.90
52979;DHT22;63430;53.186;6.598;2022-10-31T08:35:41;11.70;99.90
52979;DHT22;63430;53.186;6.598;2022-10-31T08:37:43;11.70;99.90
52979;DHT22;63430;53.186;6.598;2022-10-31T08:39:46;11.70;99.90
52979;DHT22;63430;53.186;6.598;2022-10-31T08:41:48;11.70;99.90
52979;DHT22;63430;53.186;6.598;2022-10-31T08:43:50;11.70;99.90
52979;DHT22;63430;53.186;6.598;2022-10-31T08:45:52;11.70;99.90
52979;DHT22;63430;53.186;6.598;2022-10-31T08:47:57;11.80;99.90
52979;DHT22;63430;53.186;6.598;2022-10-31T08:50:03;11.80;99.90
52979;DHT22;63430;53.186;6.598;2022-10-31T08:52:05;11.80;99.90
52979;DHT22;63430;53.186;6.598;2022-10-31T08:54:15;11.90;99.90
52979;DHT22;63430;53.186;6.598;2022-10-31T08:56:17;12.00;99.90
52979;DHT22;63430;53.186;6.598;2022-10-31T08:58:20;12.10;99.90
52979;DHT22;63430;53.186;6.598;2022-10-31T09:00:22;12.20;99.90
52979;DHT22;63430;53.186;6.598;2022-10-31T09:02:26;12.30;99.90
52979;DHT22;63430;53.186;6.598;2022-10-31T09:04:28;12.40;99.90
52979;DHT22;63430;53.186;6.598;2022-10-31T09:06:33;12.40;99.90
52979;DHT22;63430;53.186;6.598;2022-10-31T09:08:36;12.50;99.90
52979;DHT22;63430;53.186;6.598;2022-10-31T09:10:38;12.70;99.90
52979;DHT22;63430;53.186;6.598;2022-10-31T09:12:41;12.70;99.90
52979;DHT22;63430;53.186;6.598;2022-10-31T09:14:43;12.70;99.90
52979;DHT22;63430;53.186;6.598;2022-10-31T09:16:45;12.80;99.90
52979;DHT22;63430;53.186;6.598;2022-10-31T09:18:48;12.80;99.90
52979;DHT22;63430;53.186;6.598;2022-10-31T09:20:50;12.80;99.90
52979;DHT22;63430;53.186;6.598;2022-10-31T09:22:59;12.90;99.90
52979;DHT22;63430;53.186;6.598;2022-10-31T09:25:02;13.00;99.90
52979;DHT22;63430;53.186;6.598;2022-10-31T09:27:04;13.00;99.90
52979;DHT22;63430;53.186;6.598;2022-10-31T09:29:07;13.10;99.90
52979;DHT22;63430;53.186;6.598;2022-10-31T09:31:11;13.10;99.90
52979;DHT22;63430;53.186;6.598;2022-10-31T09:33:14;13.20;99.90
52979;DHT22;63430;53.186;6.598;2022-10-31T09:35:16;13.20;99.90
52979;DHT22;63430;53.186;6.598;2022-10-31T09:37:23;13.30;99.90
52979;DHT22;63430;53.186;6.598;2022-10-31T09:39:28;13.30;99.90
52979;DHT22;63430;53.186;6.598;2022-10-31T09:41:51;13.30;99.90
52979;DHT22;63430;53.186;6.598;2022-10-31T09:44:03;13.30;99.90
52979;DHT22;63430;53.186;6.598;2022-10-31T09:46:13;13.40;99.90
52979;DHT22;63430;53.186;6.598;2022-10-31T09:48:45;13.40;99.90
52979;DHT22;63430;53.186;6.598;2022-10-31T09:50:53;13.50;99.90
52979;DHT22;63430;53.186;6.598;2022-10-31T09:53:00;13.50;99.90
52979;DHT22;63430;53.186;6.598;2022-10-31T09:55:13;13.60;99.90
52979;DHT22;63430;53.186;6.598;2022-10-31T09:57:22;13.70;99.90
52979;DHT22;63430;53.186;6.598;2022-10-31T09:59:30;13.80;99.90
52979;DHT22;63430;53.186;6.598;2022-10-31T10:01:39;13.90;99.90
52979;DHT22;63430;53.186;6.598;2022-10-31T10:03:47;14.00;99.90
52979;DHT22;63430;53.186;6.598;2022-10-31T10:05:57;14.00;99.90
52979;DHT22;63430;53.186;6.598;2022-10-31T10:08:09;14.20;99.90
52979;DHT22;63430;53.186;6.598;2022-10-31T10:10:24;14.30;99.90
52979;DHT22;63430;53.186;6.598;2022-10-31T10:12:39;14.30;99.90
52979;DHT22;63430;53.186;6.598;2022-10-31T10:14:55;14.40;99.90
52979;DHT22;63430;53.186;6.598;2022-10-31T10:17:11;14.40;99.90
52979;DHT22;63430;53.186;6.598;2022-10-31T10:19:26;14.50;99.90
52979;DHT22;63430;53.186;6.598;2022-10-31T10:21:39;14.60;99.90
52979;DHT22;63430;53.186;6.598;2022-10-31T10:23:56;14.60;99.90
52979;DHT22;63430;53.186;6.598;2022-10-31T10:26:07;14.70;99.90
52979;DHT22;63430;53.186;6.598;2022-10-31T10:28:19;14.70;99.90
52979;DHT22;63430;53.186;6.598;2022-10-31T10:30:29;14.60;99.90
52979;DHT22;63430;53.186;6.598;2022-10-31T10:32:37;14.60;99.90
52979;DHT22;63430;53.186;6.598;2022-10-31T10:34:45;14.50;99.90
52979;DHT22;63430;53.186;6.598;2022-10-31T10:36:51;14.50;99.90
52979;DHT22;63430;53.186;6.598;2022-10-31T10:38:59;14.40;99.90
52979;DHT22;63430;53.186;6.598;2022-10-31T10:41:09;14.40;99.90
52979;DHT22;63430;53.186;6.598;2022-10-31T10:43:20;14.40;99.90
52979;DHT22;63430;53.186;6.598;2022-10-31T10:45:22;14.40;99.90
52979;DHT22;63430;53.186;6.598;2022-10-31T10:47:51;14.40;99.90
52979;DHT22;63430;53.186;6.598;2022-10-31T10:49:56;14.50;99.90
52979;DHT22;63430;53.186;6.598;2022-10-31T10:51:59;14.40;99.90
52979;DHT22;63430;53.186;6.598;2022-10-31T10:54:54;14.40;99.90
52979;DHT22;63430;53.186;6.598;2022-10-31T10:57:09;14.40;99.90
52979;DHT22;63430;53.186;6.598;2022-10-31T10:59:17;14.40;99.90
52979;DHT22;63430;53.186;6.598;2022-10-31T11:01:21;14.50;99.90
52979;DHT22;63430;53.186;6.598;2022-10-31T11:03:24;14.50;99.90
52979;DHT22;63430;53.186;6.598;2022-10-31T11:05:33;14.60;99.90
52979;DHT22;63430;53.186;6.598;2022-10-31T11:07:40;14.70;99.90
52979;DHT22;63430;53.186;6.598;2022-10-31T11:09:42;14.80;99.90
52979;DHT22;63430;53.186;6.598;2022-10-31T11:11:44;15.10;99.90
52979;DHT22;63430;53.186;6.598;2022-10-31T11:13:54;14.80;99.90
52979;DHT22;63430;53.186;6.598;2022-10-31T11:16:00;14.90;99.90
52979;DHT22;63430;53.186;6.598;2022-10-31T11:18:03;14.90;99.90
52979;DHT22;63430;53.186;6.598;2022-10-31T11:20:24;15.00;99.90
52979;DHT22;63430;53.186;6.598;2022-10-31T11:22:27;15.10;99.90
52979;DHT22;63430;53.186;6.598;2022-10-31T11:24:40;15.20;99.90
52979;DHT22;63430;53.186;6.598;2022-10-31T11:26:44;15.30;99.90
52979;DHT22;63430;53.186;6.598;2022-10-31T11:28:59;15.30;99.90
52979;DHT22;63430;53.186;6.598;2022-10-31T11:31:06;15.40;99.90
52979;DHT22;63430;53.186;6.598;2022-10-31T11:33:16;15.40;99.90
52979;DHT22;63430;53.186;6.598;2022-10-31T11:35:21;15.40;99.90
52979;DHT22;63430;53.186;6.598;2022-10-31T11:37:26;15.40;99.90
52979;DHT22;63430;53.186;6.598;2022-10-31T11:39:29;15.40;99.90
52979;DHT22;63430;53.186;6.598;2022-10-31T11:41:33;15.40;99.90
52979;DHT22;63430;53.186;6.598;2022-10-31T11:43:36;15.30;99.90
52979;DHT22;63430;53.186;6.598;2022-10-31T11:45:42;15.30;99.90
52979;DHT22;63430;53.186;6.598;2022-10-31T11:47:47;15.30;99.90
52979;DHT22;63430;53.186;6.598;2022-10-31T11:49:50;15.30;99.90
52979;DHT22;63430;53.186;6.598;2022-10-31T11:51:54;15.30;99.90
52979;DHT22;63430;53.186;6.598;2022-10-31T11:53:58;15.30;99.90
52979;DHT22;63430;53.186;6.598;2022-10-31T11:56:15;15.40;99.90
52979;DHT22;63430;53.186;6.598;2022-10-31T11:58:21;15.40;99.90
52979;DHT22;63430;53.186;6.598;2022-10-31T12:00:25;15.40;99.90
52979;DHT22;63430;53.186;6.598;2022-10-31T12:02:32;15.50;99.90
52979;DHT22;63430;53.186;6.598;2022-10-31T12:04:38;15.50;99.90
52979;DHT22;63430;53.186;6.598;2022-10-31T12:06:43;15.50;99.90
52979;DHT22;63430;53.186;6.598;2022-10-31T12:08:48;15.50;99.90
52979;DHT22;63430;53.186;6.598;2022-10-31T12:10:56;15.50;99.90
52979;DHT22;63430;53.186;6.598;2022-10-31T12:13:11;15.50;99.90
52979;DHT22;63430;53.186;6.598;2022-10-31T12:15:31;15.50;99.90
52979;DHT22;63430;53.186;6.598;2022-10-31T12:17:43;15.50;99.90
52979;DHT22;63430;53.186;6.598;2022-10-31T12:19:56;15.50;99.90
52979;DHT22;63430;53.186;6.598;2022-10-31T12:22:06;15.60;99.90
52979;DHT22;63430;53.186;6.598;2022-10-31T12:24:20;15.60;99.90
52979;DHT22;63430;53.186;6.598;2022-10-31T12:26:33;15.60;99.90
52979;DHT22;63430;53.186;6.598;2022-10-31T12:29:02;15.70;99.90
52979;DHT22;63430;53.186;6.598;2022-10-31T12:31:18;15.80;99.90
52979;DHT22;63430;53.186;6.598;2022-10-31T12:33:37;15.80;99.90
52979;DHT22;63430;53.186;6.598;2022-10-31T12:35:54;15.90;99.90
52979;DHT22;63430;53.186;6.598;2022-10-31T12:38:25;15.90;99.90
52979;DHT22;63430;53.186;6.598;2022-10-31T12:40:42;15.90;99.90
52979;DHT22;63430;53.186;6.598;2022-10-31T12:42:55;15.80;99.90
52979;DHT22;63430;53.186;6.598;2022-10-31T12:45:13;15.80;99.90
52979;DHT22;63430;53.186;6.598;2022-10-31T12:47:43;15.80;99.90
52979;DHT22;63430;53.186;6.598;2022-10-31T12:49:57;15.80;99.90
52979;DHT22;63430;53.186;6.598;2022-10-31T12:52:13;15.80;99.90
52979;DHT22;63430;53.186;6.598;2022-10-31T12:54:30;15.80;99.90
52979;DHT22;63430;53.186;6.598;2022-10-31T12:56:44;15.80;99.90
52979;DHT22;63430;53.186;6.598;2022-10-31T12:58:52;15.80;99.90
52979;DHT22;63430;53.186;6.598;2022-10-31T13:01:06;15.80;99.90
52979;DHT22;63430;53.186;6.598;2022-10-31T13:03:23;15.80;99.90
52979;DHT22;63430;53.186;6.598;2022-10-31T13:05:32;15.90;99.90
52979;DHT22;63430;53.186;6.598;2022-10-31T13:07:40;15.90;99.90
52979;DHT22;63430;53.186;6.598;2022-10-31T13:09:49;15.80;99.90
52979;DHT22;63430;53.186;6.598;2022-10-31T13:11:58;15.80;99.90
52979;DHT22;63430;53.186;6.598;2022-10-31T13:14:05;15.90;99.90
52979;DHT22;63430;53.186;6.598;2022-10-31T13:16:13;15.80;99.90
52979;DHT22;63430;53.186;6.598;2022-10-31T13:18:25;15.80;99.90
52979;DHT22;63430;53.186;6.598;2022-10-31T13:20:33;15.80;99.90
52979;DHT22;63430;53.186;6.598;2022-10-31T13:22:37;15.80;99.90